createdAt,value
2019-05-12T00:00:48.503Z,56.15
2019-05-12T00:01:48.183Z,55.84
2019-05-12T00:02:48.629Z,55.33
2019-05-12T00:03:48.433Z,56.04
2019-05-12T00:04:48.822Z,55.63
2019-05-12T00:05:48.373Z,55.74
2019-05-12T00:06:48.014Z,55.94
2019-05-12T00:07:48.806Z,56.45
2019-05-12T00:08:48.757Z,55.87
2019-05-12T00:09:48.051Z,55.74
2019-05-12T00:10:48.224Z,55.84
2019-05-12T00:11:48.466Z,55.84
2019-05-12T00:12:48.543Z,56.04
2019-05-12T00:13:47.964Z,56.15
2019-05-12T00:14:48.525Z,56.02
2019-05-12T00:15:47.802Z,55.63
2019-05-12T00:16:49.134Z,55.94
2019-05-12T00:17:48.353Z,56.15
2019-05-12T00:18:48.318Z,56.04
2019-05-12T00:19:48.008Z,55.84
2019-05-12T00:20:47.775Z,55.94
2019-05-12T00:21:48.432Z,55.94
2019-05-12T00:22:48.676Z,56.02
2019-05-12T00:23:47.817Z,56.35
2019-05-12T00:24:47.963Z,56.32
2019-05-12T00:25:48.090Z,56.32
2019-05-12T00:26:47.880Z,56.45
2019-05-12T00:27:48.697Z,56.76
2019-05-12T00:28:48.250Z,56.56
2019-05-12T00:29:48.595Z,56.66
2019-05-12T00:30:48.734Z,56.56
2019-05-12T00:31:47.919Z,56.66
2019-05-12T00:32:47.868Z,57.07
2019-05-12T00:33:48.112Z,56.35
2019-05-12T00:34:48.130Z,57.37
2019-05-12T00:35:48.266Z,57.57
2019-05-12T00:36:48.553Z,57.27
2019-05-12T00:37:48.656Z,57.68
2019-05-12T00:38:48.529Z,57.68
2019-05-12T00:39:47.923Z,56.86
2019-05-12T00:40:48.032Z,57.37
2019-05-12T00:41:48.219Z,56.76
2019-05-12T00:42:48.522Z,57.37
2019-05-12T00:43:48.716Z,56.86
2019-05-12T00:44:47.854Z,56.96
2019-05-12T00:45:48.224Z,57.57
2019-05-12T00:46:48.808Z,57.17
2019-05-12T00:47:48.070Z,58.39
2019-05-12T00:48:48.263Z,58.01
2019-05-12T00:49:48.908Z,58.62
2019-05-12T00:50:48.545Z,59.23
2019-05-12T00:51:48.518Z,59.34
2019-05-12T00:52:48.912Z,59.11
2019-05-12T00:53:47.905Z,59.14
2019-05-12T00:54:48.259Z,59.64
2019-05-12T00:55:47.721Z,59.44
2019-05-12T00:56:48.202Z,59.55
2019-05-12T00:57:48.466Z,59.64
2019-05-12T00:58:48.743Z,59.23
2019-05-12T00:59:47.855Z,59.03
2019-05-12T01:00:48.262Z,59.55
2019-05-12T01:01:48.153Z,59.03
2019-05-12T01:02:48.614Z,58.93
2019-05-12T01:03:48.381Z,60.26
2019-05-12T01:04:48.701Z,59.75
2019-05-12T01:05:48.537Z,60.16
2019-05-12T01:06:48.666Z,60.05
2019-05-12T01:07:48.184Z,60.57
2019-05-12T01:08:48.364Z,60.16
2019-05-12T01:09:49.101Z,60.57
2019-05-12T01:10:47.899Z,60.05
2019-05-12T01:11:48.200Z,60.16
2019-05-12T01:12:48.586Z,60.90
2019-05-12T01:13:48.574Z,60.46
2019-05-12T01:14:47.837Z,60.67
2019-05-12T01:15:48.125Z,60.67
2019-05-12T01:16:48.629Z,60.36
2019-05-12T01:17:47.775Z,60.28
2019-05-12T01:18:47.977Z,60.46
2019-05-12T01:19:48.564Z,60.77
2019-05-12T01:20:47.934Z,61.21
2019-05-12T01:21:48.126Z,60.57
2019-05-12T01:22:50.376Z,60.26
2019-05-12T01:23:56.416Z,60.36
2019-05-12T01:24:48.405Z,60.36
2019-05-12T01:25:47.830Z,60.39
2019-05-12T01:26:47.650Z,60.36
2019-05-12T01:27:48.316Z,60.36
2019-05-12T01:28:48.794Z,60.57
2019-05-12T01:29:48.048Z,61.28
2019-05-12T01:30:47.964Z,61.18
2019-05-12T01:31:48.606Z,61.18
2019-05-12T01:32:48.386Z,60.67
2019-05-12T01:33:48.600Z,60.36
2019-05-12T01:34:48.671Z,60.36
2019-05-12T01:35:48.358Z,61.38
2019-05-12T01:36:48.329Z,60.97
2019-05-12T01:37:48.409Z,61.28
2019-05-12T01:38:48.282Z,61.58
2019-05-12T01:39:49.057Z,61.49
2019-05-12T01:40:47.942Z,61.41
2019-05-12T01:41:48.107Z,61.28
2019-05-12T01:42:48.358Z,61.21
2019-05-12T01:43:48.771Z,61.18
2019-05-12T01:44:48.151Z,62.02
2019-05-12T01:45:48.315Z,62.02
2019-05-12T01:46:48.410Z,61.82
2019-05-12T01:47:48.553Z,62.43
2019-05-12T01:48:48.430Z,62.54
2019-05-12T01:49:48.760Z,62.43
2019-05-12T01:50:47.576Z,62.54
2019-05-12T01:51:47.664Z,62.33
2019-05-12T01:52:47.815Z,62.13
2019-05-12T01:53:48.255Z,62.43
2019-05-12T01:54:48.298Z,62.43
2019-05-12T01:55:48.574Z,62.74
2019-05-12T01:56:48.368Z,62.84
2019-05-12T01:57:48.602Z,62.63
2019-05-12T01:58:48.386Z,62.84
2019-05-12T01:59:48.381Z,63.28
2019-05-12T02:00:48.287Z,63.15
2019-05-12T02:01:48.654Z,63.15
2019-05-12T02:02:48.083Z,63.07
2019-05-12T02:03:48.074Z,63.04
2019-05-12T02:04:48.350Z,63.15
2019-05-12T02:05:48.571Z,63.04
2019-05-12T02:06:48.572Z,63.35
2019-05-12T02:07:47.950Z,63.35
2019-05-12T02:08:47.796Z,63.35
2019-05-12T02:09:48.064Z,63.04
2019-05-12T02:10:48.086Z,62.84
2019-05-12T02:11:48.363Z,63.35
2019-05-12T02:12:48.861Z,63.56
2019-05-12T02:13:48.604Z,63.25
2019-05-12T02:14:48.625Z,63.56
2019-05-12T02:15:48.469Z,63.56
2019-05-12T02:16:47.698Z,64.07
2019-05-12T02:17:48.147Z,63.76
2019-05-12T02:18:48.887Z,63.89
2019-05-12T02:19:48.051Z,63.89
2019-05-12T02:20:48.314Z,63.79
2019-05-12T02:21:48.529Z,64.17
2019-05-12T02:22:47.730Z,63.86
2019-05-12T02:23:47.754Z,63.66
2019-05-12T02:24:47.848Z,64.07
2019-05-12T02:25:48.356Z,64.17
2019-05-12T02:26:48.500Z,63.96
2019-05-12T02:27:47.715Z,64.07
2019-05-12T02:28:48.088Z,63.86
2019-05-12T02:29:48.009Z,64.27
2019-05-12T02:30:49.918Z,64.17
2019-05-12T02:31:49.797Z,64.27
2019-05-12T02:32:52.989Z,64.27
2019-05-12T02:33:47.333Z,64.78
2019-05-12T02:34:46.328Z,64.37
2019-05-12T02:35:46.305Z,64.48
2019-05-12T02:36:46.296Z,63.86
2019-05-12T02:37:46.289Z,64.30
2019-05-12T02:38:46.274Z,64.27
2019-05-12T02:39:46.279Z,64.81
2019-05-12T02:40:46.255Z,64.27
2019-05-12T02:41:46.253Z,64.37
2019-05-12T02:42:46.725Z,65.02
2019-05-12T02:43:46.225Z,65.02
2019-05-12T02:44:46.208Z,65.02
2019-05-12T02:45:46.206Z,65.12
2019-05-12T02:46:46.188Z,64.81
2019-05-12T02:47:46.181Z,64.61
2019-05-12T02:48:46.171Z,64.71
2019-05-12T02:49:46.163Z,64.92
2019-05-12T02:50:46.162Z,64.71
2019-05-12T02:51:46.141Z,65.40
2019-05-12T02:52:46.127Z,65.43
2019-05-12T02:53:46.954Z,65.33
2019-05-12T02:54:55.284Z,65.22
2019-05-12T02:55:47.112Z,65.43
2019-05-12T02:56:46.081Z,65.33
2019-05-12T02:57:46.071Z,65.22
2019-05-12T02:58:46.065Z,65.02
2019-05-12T02:59:46.047Z,65.33
2019-05-12T03:00:46.050Z,65.22
2019-05-12T03:01:46.030Z,65.12
2019-05-12T03:02:46.022Z,66.35
2019-05-12T03:03:46.033Z,66.25
2019-05-12T03:04:45.997Z,66.04
2019-05-12T03:05:45.997Z,66.04
2019-05-12T03:06:45.972Z,65.94
2019-05-12T03:07:45.975Z,66.14
2019-05-12T03:08:45.958Z,66.35
2019-05-12T03:09:45.956Z,65.94
2019-05-12T03:10:45.941Z,66.35
2019-05-12T03:11:45.932Z,66.55
2019-05-12T03:12:45.918Z,66.25
2019-05-12T03:13:45.900Z,66.21
2019-05-12T03:14:45.887Z,66.25
2019-05-12T03:15:45.887Z,66.66
2019-05-12T03:16:45.911Z,65.84
2019-05-12T03:17:45.894Z,66.35
2019-05-12T03:18:45.853Z,66.55
2019-05-12T03:19:45.835Z,66.45
2019-05-12T03:20:45.826Z,66.66
2019-05-12T03:21:45.819Z,66.35
2019-05-12T03:22:45.813Z,66.86
2019-05-12T03:23:45.803Z,66.86
2019-05-12T03:24:45.785Z,66.14
2019-05-12T03:25:45.941Z,66.96
2019-05-12T03:26:45.766Z,66.35
2019-05-12T03:27:45.749Z,67.07
2019-05-12T03:28:45.780Z,66.75
2019-05-12T03:29:45.730Z,66.75
2019-05-12T03:30:48.578Z,66.96
2019-05-12T03:31:48.858Z,67.16
2019-05-12T03:32:47.448Z,66.99
2019-05-12T03:33:52.252Z,66.99
2019-05-12T03:34:47.765Z,66.96
2019-05-12T03:35:52.354Z,66.45
2019-05-12T03:36:51.067Z,66.86
2019-05-12T03:37:46.644Z,66.35
2019-05-12T03:38:45.649Z,66.35
2019-05-12T03:39:45.641Z,67.16
2019-05-12T03:40:45.625Z,67.47
2019-05-12T03:41:45.604Z,67.10
2019-05-12T03:42:45.593Z,67.57
2019-05-12T03:43:45.585Z,68.52
2019-05-12T03:44:45.587Z,68.12
2019-05-12T03:45:45.655Z,68.01
2019-05-12T03:46:45.935Z,67.88
2019-05-12T03:47:45.811Z,67.81
2019-05-12T03:48:45.621Z,68.01
2019-05-12T03:49:45.585Z,67.71
2019-05-12T03:50:46.278Z,67.60
2019-05-12T03:51:45.841Z,67.91
2019-05-12T03:52:45.483Z,67.81
2019-05-12T03:53:45.708Z,68.01
2019-05-12T03:54:45.468Z,67.91
2019-05-12T03:55:47.030Z,67.81
2019-05-12T03:56:45.456Z,68.12
2019-05-12T03:57:45.445Z,67.71
2019-05-12T03:58:45.469Z,67.98
2019-05-12T03:59:45.409Z,68.12
2019-05-12T04:00:45.400Z,67.71
2019-05-12T04:01:45.539Z,67.60
2019-05-12T04:02:45.650Z,67.78
2019-05-12T04:03:45.482Z,66.89
2019-05-12T04:04:45.517Z,67.47
2019-05-12T04:05:45.716Z,67.47
2019-05-12T04:06:45.695Z,66.99
2019-05-12T04:07:45.334Z,66.75
2019-05-12T04:08:45.810Z,66.58
2019-05-12T04:09:45.317Z,66.75
2019-05-12T04:10:45.626Z,66.58
2019-05-12T04:11:45.295Z,66.38
2019-05-12T04:12:45.284Z,66.99
2019-05-12T04:13:45.461Z,66.55
2019-05-12T04:14:45.253Z,65.87
2019-05-12T04:15:45.845Z,66.17
2019-05-12T04:16:45.565Z,66.78
2019-05-12T04:17:45.562Z,66.66
2019-05-12T04:18:45.318Z,66.07
2019-05-12T04:19:45.201Z,66.35
2019-05-12T04:20:45.528Z,66.28
2019-05-12T04:21:45.187Z,66.75
2019-05-12T04:22:45.162Z,66.35
2019-05-12T04:23:45.152Z,66.75
2019-05-12T04:24:45.149Z,66.58
2019-05-12T04:25:52.168Z,66.28
2019-05-12T04:26:46.153Z,66.04
2019-05-12T04:27:45.284Z,66.38
2019-05-12T04:28:45.760Z,66.35
2019-05-12T04:29:45.094Z,65.94
2019-05-12T04:30:45.084Z,65.87
2019-05-12T04:31:45.074Z,66.28
2019-05-12T04:32:45.455Z,66.14
2019-05-12T04:33:45.402Z,66.04
2019-05-12T04:34:45.035Z,66.48
2019-05-12T04:35:45.400Z,66.38
2019-05-12T04:36:45.364Z,66.45
2019-05-12T04:37:45.161Z,66.38
2019-05-12T04:38:45.222Z,66.07
2019-05-12T04:39:44.983Z,66.14
2019-05-12T04:40:45.545Z,66.35
2019-05-12T04:41:45.046Z,65.97
2019-05-12T04:42:45.457Z,66.17
2019-05-12T04:43:44.992Z,65.46
2019-05-12T04:44:45.030Z,65.46
2019-05-12T04:45:45.485Z,65.46
2019-05-12T04:46:45.295Z,64.84
2019-05-12T04:47:45.222Z,65.53
2019-05-12T04:48:45.520Z,64.71
2019-05-12T04:49:45.275Z,64.74
2019-05-12T04:50:45.323Z,65.22
2019-05-12T04:51:45.216Z,65.02
2019-05-12T04:52:44.941Z,65.02
2019-05-12T04:53:45.074Z,64.81
2019-05-12T04:54:44.829Z,64.81
2019-05-12T04:55:45.025Z,64.61
2019-05-12T04:56:45.061Z,64.81
2019-05-12T04:57:45.276Z,64.92
2019-05-12T04:58:45.253Z,64.40
2019-05-12T04:59:45.225Z,65.02
2019-05-12T05:00:44.943Z,64.20
2019-05-12T05:01:45.493Z,64.51
2019-05-12T05:02:45.689Z,64.71
2019-05-12T05:03:44.733Z,64.71
2019-05-12T05:04:44.715Z,64.99
2019-05-12T05:05:44.899Z,64.78
2019-05-12T05:06:45.064Z,64.07
2019-05-12T05:07:45.033Z,64.27
2019-05-12T05:08:44.677Z,64.68
2019-05-12T05:09:44.662Z,64.37
2019-05-12T05:10:44.656Z,64.48
2019-05-12T05:11:45.317Z,64.99
2019-05-12T05:12:45.113Z,64.58
2019-05-12T05:13:44.697Z,64.48
2019-05-12T05:14:44.755Z,64.48
2019-05-12T05:15:44.908Z,64.27
2019-05-12T05:16:45.245Z,64.27
2019-05-12T05:17:44.590Z,64.14
2019-05-12T05:18:44.564Z,64.27
2019-05-12T05:19:44.556Z,64.14
2019-05-12T05:20:44.542Z,63.83
2019-05-12T05:21:44.539Z,64.45
2019-05-12T05:22:44.549Z,64.65
2019-05-12T05:23:44.510Z,64.96
2019-05-12T05:24:44.504Z,64.86
2019-05-12T05:25:44.489Z,64.45
2019-05-12T05:26:44.479Z,64.24
2019-05-12T05:27:44.560Z,63.49
2019-05-12T05:28:44.466Z,63.90
2019-05-12T05:29:44.450Z,63.49
2019-05-12T05:30:44.498Z,62.37
2019-05-12T05:31:44.428Z,62.99
2019-05-12T05:32:44.645Z,62.96
2019-05-12T05:33:44.405Z,62.35
2019-05-12T05:34:46.239Z,62.35
2019-05-12T05:35:45.391Z,62.55
2019-05-12T05:36:44.375Z,62.07
2019-05-12T05:37:44.432Z,61.53
2019-05-12T05:38:44.370Z,61.94
2019-05-12T05:39:49.442Z,61.63
2019-05-12T05:40:45.326Z,61.53
2019-05-12T05:41:48.867Z,61.02
2019-05-12T05:42:45.305Z,61.12
2019-05-12T05:43:48.622Z,60.30
2019-05-12T05:44:45.290Z,61.02
2019-05-12T05:45:44.274Z,60.51
2019-05-12T05:46:49.820Z,60.30
2019-05-12T05:47:45.256Z,59.89
2019-05-12T05:48:44.292Z,60.53
2019-05-12T05:49:44.232Z,60.03
2019-05-12T05:50:44.222Z,60.13
2019-05-12T05:51:46.712Z,60.51
2019-05-12T05:52:45.200Z,61.35
2019-05-12T05:53:44.418Z,60.44
2019-05-12T05:54:44.194Z,60.74
2019-05-12T05:55:44.314Z,61.15
2019-05-12T05:56:57.611Z,61.46
2019-05-12T05:57:45.143Z,60.67
2019-05-12T05:58:46.916Z,60.97
2019-05-12T05:59:45.129Z,61.49
2019-05-12T06:00:44.112Z,61.05
2019-05-12T06:01:49.512Z,61.46
2019-05-12T06:02:45.101Z,61.46
2019-05-12T06:03:44.298Z,61.35
2019-05-12T06:04:45.439Z,61.35
2019-05-12T06:05:45.068Z,61.15
2019-05-12T06:06:50.595Z,60.94
2019-05-12T06:07:45.039Z,61.25
2019-05-12T06:08:44.476Z,60.33
2019-05-12T06:09:44.029Z,60.64
2019-05-12T06:10:44.018Z,60.33
2019-05-12T06:11:44.004Z,60.94
2019-05-12T06:12:48.633Z,61.94
2019-05-12T06:13:44.982Z,61.63
2019-05-12T06:14:48.783Z,61.12
2019-05-12T06:15:44.950Z,61.32
2019-05-12T06:16:43.958Z,61.63
2019-05-12T06:17:44.037Z,60.92
2019-05-12T06:18:44.276Z,60.38
2019-05-12T06:19:43.920Z,60.58
2019-05-12T06:20:43.949Z,59.87
2019-05-12T06:21:44.187Z,60.48
2019-05-12T06:22:43.943Z,60.17
2019-05-12T06:23:43.880Z,59.69
2019-05-12T06:24:44.233Z,58.98
2019-05-12T06:25:49.355Z,59.49
2019-05-12T06:26:56.740Z,59.66
2019-05-12T06:27:44.821Z,60.28
2019-05-12T06:28:44.145Z,60.28
2019-05-12T06:29:43.839Z,59.46
2019-05-12T06:30:47.007Z,59.36
2019-05-12T06:31:44.801Z,59.26
2019-05-12T06:32:50.085Z,59.43
2019-05-12T06:33:44.789Z,59.33
2019-05-12T06:34:43.751Z,60.32
2019-05-12T06:35:45.376Z,59.30
2019-05-12T06:36:44.152Z,58.28
2019-05-12T06:37:44.472Z,57.47
2019-05-12T06:38:43.707Z,56.85
2019-05-12T06:39:43.693Z,56.52
2019-05-12T06:40:45.327Z,55.84
2019-05-12T06:41:44.387Z,56.22
2019-05-12T06:42:48.144Z,56.42
2019-05-12T06:43:45.418Z,56.29
2019-05-12T06:44:43.842Z,56.81
2019-05-12T06:45:45.545Z,56.57
2019-05-12T06:46:44.242Z,55.66
2019-05-12T06:47:45.279Z,56.14
2019-05-12T06:48:45.621Z,55.33
2019-05-12T06:49:44.000Z,55.73
2019-05-12T06:50:44.216Z,55.81
2019-05-12T06:51:44.469Z,53.98
2019-05-12T06:52:48.737Z,55.40
2019-05-12T06:53:44.542Z,55.71
2019-05-12T06:54:51.124Z,54.90
2019-05-12T06:55:44.536Z,54.90
2019-05-12T06:56:43.635Z,55.18
2019-05-12T06:57:48.284Z,54.77
2019-05-12T06:58:44.519Z,54.64
2019-05-12T06:59:50.985Z,53.93
2019-05-12T07:00:44.473Z,53.83
2019-05-12T07:01:44.955Z,53.91
2019-05-12T07:02:50.995Z,54.00
2019-05-12T07:03:44.437Z,55.53
2019-05-12T07:04:47.462Z,55.02
2019-05-12T07:05:45.280Z,55.10
2019-05-12T07:06:44.182Z,54.79
2019-05-12T07:07:46.002Z,54.66
2019-05-12T07:08:43.951Z,53.83
2019-05-12T07:09:53.482Z,53.12
2019-05-12T07:10:51.501Z,51.90
2019-05-12T07:11:52.923Z,52.41
2019-05-12T07:12:55.946Z,52.51
2019-05-12T07:13:44.348Z,52.08
2019-05-12T07:14:43.786Z,52.59
2019-05-12T07:15:43.928Z,52.08
2019-05-12T07:16:44.161Z,51.86
2019-05-12T07:17:47.697Z,52.18
2019-05-12T07:18:44.270Z,52.36
2019-05-12T07:19:43.950Z,51.25
2019-05-12T07:20:43.638Z,50.63
2019-05-12T07:21:43.981Z,51.25
2019-05-12T07:22:45.877Z,50.41
2019-05-12T07:23:44.541Z,50.01
2019-05-12T07:24:50.010Z,51.22
2019-05-12T07:25:44.673Z,50.61
2019-05-12T07:26:44.227Z,49.50
2019-05-12T07:27:47.254Z,49.27
2019-05-12T07:28:44.168Z,48.97
2019-05-12T07:29:43.595Z,47.74
2019-05-12T07:30:44.103Z,46.84
2019-05-12T07:31:44.150Z,47.33
2019-05-12T07:32:43.397Z,46.72
2019-05-12T07:33:45.790Z,46.30
2019-05-12T07:34:43.780Z,45.49
2019-05-12T07:35:44.430Z,45.57
2019-05-12T07:36:44.286Z,44.46
2019-05-12T07:37:43.611Z,43.87
2019-05-12T07:38:43.458Z,43.24
2019-05-12T07:39:45.469Z,44.15
2019-05-12T07:40:44.429Z,44.35
2019-05-12T07:41:50.986Z,44.64
2019-05-12T07:42:44.037Z,44.74
2019-05-12T07:43:44.376Z,43.80
2019-05-12T07:44:44.105Z,43.89
2019-05-12T07:45:44.114Z,43.89
2019-05-12T07:46:45.630Z,43.79
2019-05-12T07:47:44.955Z,44.27
2019-05-12T07:48:49.011Z,43.79
2019-05-12T07:49:44.203Z,44.47
2019-05-12T07:50:43.384Z,45.58
2019-05-12T07:51:44.658Z,45.26
2019-05-12T07:52:44.181Z,45.16
2019-05-12T07:53:47.002Z,43.74
2019-05-12T07:54:44.430Z,42.21
2019-05-12T07:55:45.382Z,41.49
2019-05-12T07:56:44.362Z,42.60
2019-05-12T07:57:52.877Z,43.40
2019-05-12T07:58:47.436Z,43.80
2019-05-12T07:59:43.909Z,44.09
2019-05-12T08:00:44.259Z,42.98
2019-05-12T08:01:50.187Z,43.08
2019-05-12T08:02:44.423Z,41.71
2019-05-12T08:03:43.670Z,42.32
2019-05-12T08:04:43.999Z,41.81
2019-05-12T08:05:43.928Z,41.99
2019-05-12T08:06:46.565Z,42.19
2019-05-12T08:07:44.500Z,42.27
2019-05-12T08:08:50.371Z,40.64
2019-05-12T08:09:43.737Z,40.73
2019-05-12T08:10:44.330Z,40.33
2019-05-12T08:11:43.405Z,39.82
2019-05-12T08:12:44.485Z,38.48
2019-05-12T08:13:43.831Z,38.56
2019-05-12T08:14:43.968Z,38.26
2019-05-12T08:15:45.714Z,38.34
2019-05-12T08:16:43.855Z,38.22
2019-05-12T08:17:44.118Z,35.71
2019-05-12T08:18:44.453Z,35.82
2019-05-12T08:19:44.342Z,35.89
2019-05-12T08:20:43.541Z,35.60
2019-05-12T08:21:48.618Z,35.38
2019-05-12T08:22:43.894Z,35.28
2019-05-12T08:23:44.449Z,36.26
2019-05-12T08:24:49.617Z,34.36
2019-05-12T08:25:43.634Z,34.94
2019-05-12T08:26:43.525Z,34.24
2019-05-12T08:27:45.153Z,33.86
2019-05-12T08:28:44.132Z,33.74
2019-05-12T08:29:43.279Z,34.23
2019-05-12T08:30:49.838Z,32.93
2019-05-12T08:31:44.077Z,33.12
2019-05-12T08:32:44.310Z,33.04
2019-05-12T08:33:43.668Z,34.56
2019-05-12T08:34:43.721Z,34.56
2019-05-12T08:35:43.839Z,33.84
2019-05-12T08:36:44.968Z,32.94
2019-05-12T08:37:44.117Z,33.16
2019-05-12T08:38:44.390Z,32.96
2019-05-12T08:39:44.252Z,33.26
2019-05-12T08:40:48.823Z,32.94
2019-05-12T08:41:44.441Z,33.93
2019-05-12T08:42:43.626Z,33.23
2019-05-12T08:43:47.203Z,34.12
2019-05-12T08:44:43.974Z,32.32
2019-05-12T08:45:44.407Z,32.51
2019-05-12T08:46:51.201Z,31.70
2019-05-12T08:47:44.052Z,32.28
2019-05-12T08:48:44.507Z,31.26
2019-05-12T08:49:51.079Z,30.45
2019-05-12T08:50:46.001Z,29.74
2019-05-12T08:51:44.288Z,30.33
2019-05-12T08:52:44.180Z,29.94
2019-05-12T08:53:43.969Z,32.52
2019-05-12T08:54:45.381Z,29.82
2019-05-12T08:55:43.668Z,31.92
2019-05-12T08:56:43.654Z,30.15
2019-05-12T08:57:48.980Z,29.94
2019-05-12T08:58:48.341Z,29.43
2019-05-12T08:59:44.156Z,28.83
2019-05-12T09:00:46.438Z,29.01
2019-05-12T09:01:43.821Z,28.81
2019-05-12T09:02:46.135Z,28.60
2019-05-12T09:03:44.315Z,28.50
2019-05-12T09:04:43.089Z,29.58
2019-05-12T09:05:44.581Z,28.28
2019-05-12T09:06:43.454Z,27.79
2019-05-12T09:07:43.560Z,28.39
2019-05-12T09:08:45.130Z,27.99
2019-05-12T09:09:43.964Z,28.69
2019-05-12T09:10:44.938Z,28.99
2019-05-12T09:11:44.053Z,28.39
2019-05-12T09:12:44.099Z,28.88
2019-05-12T09:13:43.443Z,28.88
2019-05-12T09:14:46.106Z,28.58
2019-05-12T09:15:43.851Z,28.58
2019-05-12T09:16:44.033Z,29.08
2019-05-12T09:17:48.963Z,28.57
2019-05-12T09:18:43.542Z,28.17
2019-05-12T09:19:43.591Z,27.47
2019-05-12T09:20:48.850Z,28.05
2019-05-12T09:21:44.207Z,27.86
2019-05-12T09:22:43.230Z,27.95
2019-05-12T09:23:45.362Z,27.04
2019-05-12T09:24:43.987Z,26.94
2019-05-12T09:25:45.328Z,26.25
2019-05-12T09:26:43.352Z,25.85
2019-05-12T09:27:45.641Z,25.85
2019-05-12T09:28:49.899Z,26.44
2019-05-12T09:29:43.580Z,25.95
2019-05-12T09:30:45.915Z,25.74
2019-05-12T09:31:44.061Z,25.24
2019-05-12T09:32:48.631Z,24.94
2019-05-12T09:33:44.574Z,24.74
2019-05-12T09:34:46.911Z,24.34
2019-05-12T09:35:43.745Z,24.15
2019-05-12T09:36:43.782Z,25.24
2019-05-12T09:37:43.964Z,24.34
2019-05-12T09:38:43.868Z,24.64
2019-05-12T09:39:43.584Z,24.74
2019-05-12T09:40:43.812Z,24.23
2019-05-12T09:41:46.461Z,24.63
2019-05-12T09:42:44.088Z,25.72
2019-05-12T09:43:46.381Z,24.13
2019-05-12T09:44:43.896Z,24.21
2019-05-12T09:45:49.761Z,23.81
2019-05-12T09:46:44.067Z,23.41
2019-05-12T09:47:43.667Z,23.50
2019-05-12T09:48:46.916Z,23.11
2019-05-12T09:49:44.433Z,22.91
2019-05-12T09:50:44.192Z,22.91
2019-05-12T09:51:45.696Z,22.80
2019-05-12T09:52:43.916Z,22.60
2019-05-12T09:53:42.911Z,21.92
2019-05-12T09:54:44.446Z,22.89
2019-05-12T09:55:43.628Z,23.79
2019-05-12T09:56:43.989Z,22.60
2019-05-12T09:57:43.008Z,22.69
2019-05-12T09:58:43.639Z,23.28
2019-05-12T09:59:45.952Z,22.00
2019-05-12T10:00:43.445Z,21.60
2019-05-12T10:01:45.728Z,21.89
2019-05-12T10:02:43.640Z,21.70
2019-05-12T10:03:43.739Z,21.60
2019-05-12T10:04:43.662Z,21.10
2019-05-12T10:05:41.562Z,20.50
2019-05-12T10:06:41.519Z,21.09
2019-05-12T10:07:41.512Z,20.49
2019-05-12T10:08:43.412Z,20.98
2019-05-12T10:09:41.498Z,21.07
2019-05-12T10:10:44.619Z,20.97
2019-05-12T10:11:44.746Z,21.16
2019-05-12T10:12:46.337Z,20.37
2019-05-12T10:13:44.782Z,21.06
2019-05-12T10:14:45.988Z,21.56
2019-05-12T10:15:42.778Z,22.25
2019-05-12T10:16:45.550Z,21.26
2019-05-12T10:17:43.415Z,20.57
2019-05-12T10:18:43.121Z,21.28
2019-05-12T10:19:43.398Z,20.86
2019-05-12T10:20:41.380Z,20.47
2019-05-12T10:21:41.378Z,20.16
2019-05-12T10:22:43.559Z,19.58
2019-05-12T10:23:43.516Z,20.57
2019-05-12T10:24:52.115Z,19.98
2019-05-12T10:25:44.662Z,20.46
2019-05-12T10:26:47.265Z,20.55
2019-05-12T10:27:44.291Z,20.73
2019-05-12T10:28:43.724Z,20.43
2019-05-12T10:29:43.714Z,20.03
2019-05-12T10:30:41.278Z,19.64
2019-05-12T10:31:41.275Z,19.84
2019-05-12T10:32:43.476Z,18.94
2019-05-12T10:33:43.233Z,19.06
2019-05-12T10:34:41.243Z,19.06
2019-05-12T10:35:43.690Z,19.26
2019-05-12T10:36:44.920Z,19.36
2019-05-12T10:37:43.668Z,20.06
2019-05-12T10:38:43.267Z,19.85
2019-05-12T10:39:41.193Z,20.65
2019-05-12T10:40:41.185Z,20.94
2019-05-12T10:41:43.207Z,19.35
2019-05-12T10:42:46.205Z,19.34
2019-05-12T10:43:43.319Z,19.15
2019-05-12T10:44:41.148Z,19.45
2019-05-12T10:45:41.128Z,19.46
2019-05-12T10:46:42.545Z,21.15
2019-05-12T10:47:41.116Z,19.95
2019-05-12T10:48:44.164Z,20.25
2019-05-12T10:49:41.095Z,20.24
2019-05-12T10:50:41.101Z,20.23
2019-05-12T10:51:43.625Z,19.65
2019-05-12T10:52:41.129Z,19.85
2019-05-12T10:53:43.162Z,20.53
2019-05-12T10:54:43.328Z,19.82
2019-05-12T10:55:41.051Z,18.83
2019-05-12T10:56:43.663Z,18.83
2019-05-12T10:57:41.010Z,20.03
2019-05-12T10:58:41.106Z,19.73
2019-05-12T10:59:45.181Z,19.65
2019-05-12T11:00:44.194Z,19.66
2019-05-12T11:01:47.320Z,19.56
2019-05-12T11:02:41.965Z,20.76
2019-05-12T11:03:42.925Z,21.34
2019-05-12T11:04:44.039Z,20.35
2019-05-12T11:05:40.935Z,21.92
2019-05-12T11:06:46.879Z,21.02
2019-05-12T11:07:43.569Z,20.25
2019-05-12T11:08:41.273Z,19.26
2019-05-12T11:09:43.562Z,20.35
2019-05-12T11:10:40.883Z,20.55
2019-05-12T11:11:43.602Z,20.54
2019-05-12T11:12:44.023Z,19.65
2019-05-12T11:13:48.306Z,19.27
2019-05-12T11:14:43.900Z,19.98
2019-05-12T11:15:46.116Z,20.47
2019-05-12T11:16:44.439Z,21.15
2019-05-12T11:17:46.049Z,20.86
2019-05-12T11:18:43.672Z,20.95
2019-05-12T11:19:47.263Z,21.53
2019-05-12T11:20:41.783Z,20.34
2019-05-12T11:21:40.769Z,20.44
2019-05-12T11:22:40.760Z,20.75
2019-05-12T11:23:40.756Z,20.94
2019-05-12T11:24:40.773Z,21.15
2019-05-12T11:25:40.736Z,21.45
2019-05-12T11:26:43.098Z,21.24
2019-05-12T11:27:40.713Z,21.04
2019-05-12T11:28:40.702Z,20.24
2019-05-12T11:29:45.970Z,20.22
2019-05-12T11:30:43.680Z,19.23
2019-05-12T11:31:40.673Z,20.81
2019-05-12T11:32:40.657Z,19.32
2019-05-12T11:33:40.656Z,19.63
2019-05-12T11:34:40.642Z,19.04
2019-05-12T11:35:40.642Z,18.93
2019-05-12T11:36:40.618Z,18.73
2019-05-12T11:37:40.619Z,19.42
2019-05-12T11:38:40.601Z,19.21
2019-05-12T11:39:46.929Z,18.43
2019-05-12T11:40:43.586Z,17.63
2019-05-12T11:41:40.589Z,17.63
2019-05-12T11:42:40.564Z,17.43
2019-05-12T11:43:40.555Z,16.54
2019-05-12T11:44:40.542Z,17.62
2019-05-12T11:45:40.531Z,17.62
2019-05-12T11:46:40.537Z,18.23
2019-05-12T11:47:40.512Z,18.52
2019-05-12T11:48:45.574Z,17.92
2019-05-12T11:49:43.725Z,18.02
2019-05-12T11:50:46.480Z,17.64
2019-05-12T11:51:41.487Z,17.83
2019-05-12T11:52:40.463Z,18.04
2019-05-12T11:53:40.459Z,17.43
2019-05-12T11:54:41.222Z,16.83
2019-05-12T11:55:43.553Z,17.33
2019-05-12T11:56:45.730Z,16.35
2019-05-12T11:57:43.647Z,17.33
2019-05-12T11:58:41.318Z,17.54
2019-05-12T11:59:43.429Z,17.43
2019-05-12T12:00:41.381Z,17.71
2019-05-12T12:01:45.583Z,17.03
2019-05-12T12:02:43.620Z,18.63
2019-05-12T12:03:40.361Z,17.43
2019-05-12T12:04:40.343Z,17.94
2019-05-12T12:05:40.335Z,17.94
2019-05-12T12:06:40.333Z,17.75
2019-05-12T12:07:49.081Z,17.65
2019-05-12T12:08:41.310Z,16.27
2019-05-12T12:09:40.296Z,17.44
2019-05-12T12:10:40.384Z,16.64
2019-05-12T12:11:40.290Z,16.93
2019-05-12T12:12:45.273Z,17.32
2019-05-12T12:13:41.260Z,16.93
2019-05-12T12:14:45.042Z,17.71
2019-05-12T12:15:41.236Z,17.03
2019-05-12T12:16:44.250Z,16.35
2019-05-12T12:17:41.218Z,17.22
2019-05-12T12:18:40.214Z,16.04
2019-05-12T12:19:46.213Z,16.24
2019-05-12T12:20:41.193Z,17.33
2019-05-12T12:21:45.118Z,15.85
2019-05-12T12:22:43.009Z,15.95
2019-05-12T12:23:40.937Z,16.93
2019-05-12T12:24:43.526Z,17.80
2019-05-12T12:25:43.089Z,17.59
2019-05-12T12:26:41.129Z,17.49
2019-05-12T12:27:40.139Z,16.61
2019-05-12T12:28:40.121Z,17.19
2019-05-12T12:29:40.101Z,16.12
2019-05-12T12:30:40.101Z,14.94
2019-05-12T12:31:40.089Z,16.22
2019-05-12T12:32:40.077Z,15.03
2019-05-12T12:33:41.039Z,16.30
2019-05-12T12:34:40.058Z,15.13
2019-05-12T12:35:40.044Z,15.42
2019-05-12T12:36:40.039Z,16.02
2019-05-12T12:37:40.033Z,16.02
2019-05-12T12:38:40.025Z,15.64
2019-05-12T12:39:40.040Z,15.25
2019-05-12T12:40:40.008Z,16.14
2019-05-12T12:41:45.741Z,15.86
2019-05-12T12:42:46.336Z,16.05
2019-05-12T12:43:43.174Z,16.54
2019-05-12T12:44:39.963Z,16.24
2019-05-12T12:45:40.718Z,16.74
2019-05-12T12:46:39.941Z,16.93
2019-05-12T12:47:46.718Z,17.03
2019-05-12T12:48:40.930Z,16.55
2019-05-12T12:49:44.474Z,17.25
2019-05-12T12:50:40.906Z,16.96
2019-05-12T12:51:39.901Z,18.55
2019-05-12T12:52:46.870Z,18.27